sensor_id;sensor_type;location;lat;lon;timestamp;P1;durP1;ratioP1;P2;durP2;ratioP2
16288;SDS011;26089;43.538;5.250;2022-11-20T00:01:06;3.73;;;2.60;;
16288;SDS011;26089;43.538;5.250;2022-11-20T00:03:34;5.43;;;2.33;;
16288;SDS011;26089;43.538;5.250;2022-11-20T00:06:03;5.17;;;2.57;;
16288;SDS011;26089;43.538;5.250;2022-11-20T00:08:31;2.83;;;2.40;;
16288;SDS011;26089;43.538;5.250;2022-11-20T00:11:02;4.60;;;2.90;;
16288;SDS011;26089;43.538;5.250;2022-11-20T00:13:30;2.40;;;2.30;;
16288;SDS011;26089;43.538;5.250;2022-11-20T00:15:57;2.23;;;2.13;;
16288;SDS011;26089;43.538;5.250;2022-11-20T00:18:24;4.50;;;2.33;;
16288;SDS011;26089;43.538;5.250;2022-11-20T00:20:51;2.90;;;2.43;;
16288;SDS011;26089;43.538;5.250;2022-11-20T00:23:20;4.77;;;2.50;;
16288;SDS011;26089;43.538;5.250;2022-11-20T00:25:47;2.73;;;2.53;;
16288;SDS011;26089;43.538;5.250;2022-11-20T00:28:14;2.60;;;2.40;;
16288;SDS011;26089;43.538;5.250;2022-11-20T00:30:41;2.73;;;2.37;;
16288;SDS011;26089;43.538;5.250;2022-11-20T00:33:08;2.67;;;2.23;;
16288;SDS011;26089;43.538;5.250;2022-11-20T00:35:35;2.60;;;2.40;;
16288;SDS011;26089;43.538;5.250;2022-11-20T00:38:02;2.50;;;2.40;;
16288;SDS011;26089;43.538;5.250;2022-11-20T00:40:30;2.53;;;2.30;;
16288;SDS011;26089;43.538;5.250;2022-11-20T00:42:57;3.83;;;2.40;;
16288;SDS011;26089;43.538;5.250;2022-11-20T00:45:24;2.17;;;2.00;;
16288;SDS011;26089;43.538;5.250;2022-11-20T00:47:51;2.60;;;2.37;;
16288;SDS011;26089;43.538;5.250;2022-11-20T00:50:18;2.57;;;2.37;;
16288;SDS011;26089;43.538;5.250;2022-11-20T00:52:45;2.73;;;2.53;;
16288;SDS011;26089;43.538;5.250;2022-11-20T00:55:12;2.50;;;2.10;;
16288;SDS011;26089;43.538;5.250;2022-11-20T00:57:40;2.20;;;2.10;;
16288;SDS011;26089;43.538;5.250;2022-11-20T01:00:08;3.63;;;2.43;;
16288;SDS011;26089;43.538;5.250;2022-11-20T01:02:35;2.50;;;2.30;;
16288;SDS011;26089;43.538;5.250;2022-11-20T01:05:02;4.00;;;2.60;;
16288;SDS011;26089;43.538;5.250;2022-11-20T01:07:29;2.80;;;2.50;;
16288;SDS011;26089;43.538;5.250;2022-11-20T01:09:58;2.97;;;2.67;;
16288;SDS011;26089;43.538;5.250;2022-11-20T01:12:24;5.37;;;2.33;;
16288;SDS011;26089;43.538;5.250;2022-11-20T01:14:53;2.27;;;2.00;;
16288;SDS011;26089;43.538;5.250;2022-11-20T01:17:20;5.70;;;2.67;;
16288;SDS011;26089;43.538;5.250;2022-11-20T01:19:48;3.57;;;2.60;;
16288;SDS011;26089;43.538;5.250;2022-11-20T01:22:15;2.77;;;2.53;;
16288;SDS011;26089;43.538;5.250;2022-11-20T01:24:42;2.37;;;2.17;;
16288;SDS011;26089;43.538;5.250;2022-11-20T01:27:09;2.20;;;2.10;;
16288;SDS011;26089;43.538;5.250;2022-11-20T01:29:36;4.47;;;2.30;;
16288;SDS011;26089;43.538;5.250;2022-11-20T01:32:05;4.20;;;2.77;;
16288;SDS011;26089;43.538;5.250;2022-11-20T01:34:32;2.33;;;2.20;;
16288;SDS011;26089;43.538;5.250;2022-11-20T01:36:59;3.50;;;2.50;;
16288;SDS011;26089;43.538;5.250;2022-11-20T01:39:26;3.60;;;2.37;;
16288;SDS011;26089;43.538;5.250;2022-11-20T01:41:53;3.87;;;2.40;;
16288;SDS011;26089;43.538;5.250;2022-11-20T01:47:31;3.27;;;2.53;;
16288;SDS011;26089;43.538;5.250;2022-11-20T01:50:03;3.23;;;3.03;;
16288;SDS011;26089;43.538;5.250;2022-11-20T01:52:35;3.37;;;2.53;;
16288;SDS011;26089;43.538;5.250;2022-11-20T01:55:07;2.90;;;2.50;;
16288;SDS011;26089;43.538;5.250;2022-11-20T01:57:37;5.37;;;2.60;;
16288;SDS011;26089;43.538;5.250;2022-11-20T02:00:06;2.83;;;2.20;;
16288;SDS011;26089;43.538;5.250;2022-11-20T02:02:37;3.53;;;2.70;;
16288;SDS011;26089;43.538;5.250;2022-11-20T02:05:09;2.87;;;2.40;;
16288;SDS011;26089;43.538;5.250;2022-11-20T02:07:40;4.63;;;2.60;;
16288;SDS011;26089;43.538;5.250;2022-11-20T02:10:08;4.60;;;2.70;;
16288;SDS011;26089;43.538;5.250;2022-11-20T02:12:35;2.53;;;2.33;;
16288;SDS011;26089;43.538;5.250;2022-11-20T02:15:19;3.10;;;2.90;;
16288;SDS011;26089;43.538;5.250;2022-11-20T02:17:48;2.60;;;2.20;;
16288;SDS011;26089;43.538;5.250;2022-11-20T02:20:15;2.90;;;2.70;;
16288;SDS011;26089;43.538;5.250;2022-11-20T02:22:44;2.70;;;2.40;;
16288;SDS011;26089;43.538;5.250;2022-11-20T02:25:18;2.27;;;2.17;;
16288;SDS011;26089;43.538;5.250;2022-11-20T02:27:46;2.77;;;2.27;;
16288;SDS011;26089;43.538;5.250;2022-11-20T02:30:13;2.47;;;2.23;;
16288;SDS011;26089;43.538;5.250;2022-11-20T02:32:40;3.07;;;2.60;;
16288;SDS011;26089;43.538;5.250;2022-11-20T02:35:08;2.83;;;2.57;;
16288;SDS011;26089;43.538;5.250;2022-11-20T02:37:56;3.67;;;2.40;;
16288;SDS011;26089;43.538;5.250;2022-11-20T02:40:25;2.73;;;2.60;;
16288;SDS011;26089;43.538;5.250;2022-11-20T02:42:52;2.57;;;2.37;;
16288;SDS011;26089;43.538;5.250;2022-11-20T02:45:19;3.73;;;2.10;;
16288;SDS011;26089;43.538;5.250;2022-11-20T02:47:46;2.63;;;2.40;;
16288;SDS011;26089;43.538;5.250;2022-11-20T02:50:13;2.93;;;2.40;;
16288;SDS011;26089;43.538;5.250;2022-11-20T02:52:40;4.80;;;2.50;;
16288;SDS011;26089;43.538;5.250;2022-11-20T02:55:08;3.30;;;2.23;;
16288;SDS011;26089;43.538;5.250;2022-11-20T02:57:36;4.30;;;2.77;;
16288;SDS011;26089;43.538;5.250;2022-11-20T03:00:04;5.00;;;2.43;;
16288;SDS011;26089;43.538;5.250;2022-11-20T03:02:32;3.13;;;2.50;;
16288;SDS011;26089;43.538;5.250;2022-11-20T03:05:00;2.23;;;2.13;;
16288;SDS011;26089;43.538;5.250;2022-11-20T03:07:27;5.23;;;2.50;;
16288;SDS011;26089;43.538;5.250;2022-11-20T03:09:54;2.50;;;2.30;;
16288;SDS011;26089;43.538;5.250;2022-11-20T03:12:21;2.57;;;2.27;;
16288;SDS011;26089;43.538;5.250;2022-11-20T03:14:49;2.77;;;2.20;;
16288;SDS011;26089;43.538;5.250;2022-11-20T03:17:16;2.10;;;2.00;;
16288;SDS011;26089;43.538;5.250;2022-11-20T03:19:43;1.97;;;1.87;;
16288;SDS011;26089;43.538;5.250;2022-11-20T03:22:10;2.30;;;2.20;;
16288;SDS011;26089;43.538;5.250;2022-11-20T03:24:37;3.10;;;2.13;;
16288;SDS011;26089;43.538;5.250;2022-11-20T03:27:04;2.40;;;2.20;;
16288;SDS011;26089;43.538;5.250;2022-11-20T03:29:31;2.77;;;2.57;;
16288;SDS011;26089;43.538;5.250;2022-11-20T03:31:59;2.90;;;2.37;;
16288;SDS011;26089;43.538;5.250;2022-11-20T03:34:26;2.30;;;2.10;;
16288;SDS011;26089;43.538;5.250;2022-11-20T03:36:53;2.27;;;2.13;;
16288;SDS011;26089;43.538;5.250;2022-11-20T03:39:20;2.53;;;2.33;;
16288;SDS011;26089;43.538;5.250;2022-11-20T03:41:47;2.30;;;2.20;;
16288;SDS011;26089;43.538;5.250;2022-11-20T03:44:14;2.10;;;2.00;;
16288;SDS011;26089;43.538;5.250;2022-11-20T03:46:41;2.87;;;2.03;;
16288;SDS011;26089;43.538;5.250;2022-11-20T03:49:09;2.47;;;1.90;;
16288;SDS011;26089;43.538;5.250;2022-11-20T03:51:36;2.37;;;2.20;;
16288;SDS011;26089;43.538;5.250;2022-11-20T03:54:04;2.90;;;2.00;;
16288;SDS011;26089;43.538;5.250;2022-11-20T03:56:34;3.60;;;2.10;;
16288;SDS011;26089;43.538;5.250;2022-11-20T03:59:02;2.10;;;2.00;;
16288;SDS011;26089;43.538;5.250;2022-11-20T04:01:30;2.20;;;2.10;;
16288;SDS011;26089;43.538;5.250;2022-11-20T04:03:58;2.30;;;2.20;;
16288;SDS011;26089;43.538;5.250;2022-11-20T04:06:28;3.80;;;2.87;;
16288;SDS011;26089;43.538;5.250;2022-11-20T04:08:56;2.53;;;2.03;;
16288;SDS011;26089;43.538;5.250;2022-11-20T04:11:25;2.40;;;2.30;;
16288;SDS011;26089;43.538;5.250;2022-11-20T04:13:53;1.97;;;1.87;;
16288;SDS011;26089;43.538;5.250;2022-11-20T04:16:22;2.47;;;2.27;;
16288;SDS011;26089;43.538;5.250;2022-11-20T04:18:51;2.80;;;2.60;;
16288;SDS011;26089;43.538;5.250;2022-11-20T04:21:19;2.30;;;2.20;;
16288;SDS011;26089;43.538;5.250;2022-11-20T04:23:48;2.63;;;2.40;;
16288;SDS011;26089;43.538;5.250;2022-11-20T04:26:16;2.30;;;2.00;;
16288;SDS011;26089;43.538;5.250;2022-11-20T04:28:43;3.37;;;2.20;;
16288;SDS011;26089;43.538;5.250;2022-11-20T04:31:11;2.80;;;2.60;;
16288;SDS011;26089;43.538;5.250;2022-11-20T04:33:39;2.67;;;2.47;;
16288;SDS011;26089;43.538;5.250;2022-11-20T04:36:07;2.97;;;2.67;;
16288;SDS011;26089;43.538;5.250;2022-11-20T04:38:37;2.40;;;2.30;;
16288;SDS011;26089;43.538;5.250;2022-11-20T04:41:08;2.93;;;2.30;;
16288;SDS011;26089;43.538;5.250;2022-11-20T04:43:38;4.03;;;2.70;;
16288;SDS011;26089;43.538;5.250;2022-11-20T04:46:05;2.40;;;2.20;;
16288;SDS011;26089;43.538;5.250;2022-11-20T04:48:32;2.63;;;2.13;;
16288;SDS011;26089;43.538;5.250;2022-11-20T04:51:02;2.57;;;2.37;;
16288;SDS011;26089;43.538;5.250;2022-11-20T04:53:29;3.07;;;2.40;;
16288;SDS011;26089;43.538;5.250;2022-11-20T04:55:59;2.90;;;2.60;;
16288;SDS011;26089;43.538;5.250;2022-11-20T04:58:27;2.10;;;2.00;;
16288;SDS011;26089;43.538;5.250;2022-11-20T05:01:00;2.40;;;2.20;;
16288;SDS011;26089;43.538;5.250;2022-11-20T05:03:29;3.63;;;2.17;;
16288;SDS011;26089;43.538;5.250;2022-11-20T05:05:56;3.70;;;2.73;;
16288;SDS011;26089;43.538;5.250;2022-11-20T05:08:26;2.30;;;2.17;;
16288;SDS011;26089;43.538;5.250;2022-11-20T05:10:53;3.00;;;2.30;;
16288;SDS011;26089;43.538;5.250;2022-11-20T05:13:20;2.57;;;2.30;;
16288;SDS011;26089;43.538;5.250;2022-11-20T05:15:48;3.67;;;2.30;;
16288;SDS011;26089;43.538;5.250;2022-11-20T05:18:15;4.37;;;2.30;;
16288;SDS011;26089;43.538;5.250;2022-11-20T05:20:42;2.43;;;2.13;;
16288;SDS011;26089;43.538;5.250;2022-11-20T05:23:09;4.37;;;2.60;;
16288;SDS011;26089;43.538;5.250;2022-11-20T05:25:36;2.03;;;1.93;;
16288;SDS011;26089;43.538;5.250;2022-11-20T05:28:03;3.17;;;2.27;;
16288;SDS011;26089;43.538;5.250;2022-11-20T05:30:30;2.70;;;2.60;;
16288;SDS011;26089;43.538;5.250;2022-11-20T05:32:58;2.80;;;2.00;;
16288;SDS011;26089;43.538;5.250;2022-11-20T05:35:25;2.17;;;2.07;;
16288;SDS011;26089;43.538;5.250;2022-11-20T05:37:52;2.70;;;2.17;;
16288;SDS011;26089;43.538;5.250;2022-11-20T05:40:19;2.20;;;2.00;;
16288;SDS011;26089;43.538;5.250;2022-11-20T05:42:46;2.43;;;2.27;;
16288;SDS011;26089;43.538;5.250;2022-11-20T05:45:13;2.53;;;2.40;;
16288;SDS011;26089;43.538;5.250;2022-11-20T05:47:40;2.40;;;2.17;;
16288;SDS011;26089;43.538;5.250;2022-11-20T05:50:08;2.50;;;2.30;;
16288;SDS011;26089;43.538;5.250;2022-11-20T05:52:35;2.27;;;2.10;;
16288;SDS011;26089;43.538;5.250;2022-11-20T05:55:02;2.17;;;2.07;;
16288;SDS011;26089;43.538;5.250;2022-11-20T05:57:30;2.77;;;2.07;;
16288;SDS011;26089;43.538;5.250;2022-11-20T05:59:58;2.63;;;2.20;;
16288;SDS011;26089;43.538;5.250;2022-11-20T06:02:24;2.20;;;2.10;;
16288;SDS011;26089;43.538;5.250;2022-11-20T06:04:51;2.30;;;2.20;;
16288;SDS011;26089;43.538;5.250;2022-11-20T06:07:20;4.67;;;2.30;;
16288;SDS011;26089;43.538;5.250;2022-11-20T06:09:47;3.20;;;2.10;;
16288;SDS011;26089;43.538;5.250;2022-11-20T06:12:14;3.43;;;2.10;;
16288;SDS011;26089;43.538;5.250;2022-11-20T06:14:41;2.33;;;2.20;;
16288;SDS011;26089;43.538;5.250;2022-11-20T06:17:07;2.53;;;2.33;;
16288;SDS011;26089;43.538;5.250;2022-11-20T06:19:34;3.30;;;2.70;;
16288;SDS011;26089;43.538;5.250;2022-11-20T06:22:01;3.00;;;2.47;;
16288;SDS011;26089;43.538;5.250;2022-11-20T06:24:30;2.00;;;1.93;;
16288;SDS011;26089;43.538;5.250;2022-11-20T06:26:57;2.40;;;2.20;;
16288;SDS011;26089;43.538;5.250;2022-11-20T06:29:24;2.10;;;2.00;;
16288;SDS011;26089;43.538;5.250;2022-11-20T06:31:50;3.07;;;2.37;;
16288;SDS011;26089;43.538;5.250;2022-11-20T06:34:17;2.53;;;2.30;;
16288;SDS011;26089;43.538;5.250;2022-11-20T06:36:44;2.00;;;1.90;;
16288;SDS011;26089;43.538;5.250;2022-11-20T06:39:11;2.77;;;2.57;;
16288;SDS011;26089;43.538;5.250;2022-11-20T06:41:40;3.83;;;3.57;;
16288;SDS011;26089;43.538;5.250;2022-11-20T06:44:07;2.70;;;2.50;;
16288;SDS011;26089;43.538;5.250;2022-11-20T06:46:34;2.17;;;2.00;;
16288;SDS011;26089;43.538;5.250;2022-11-20T06:49:01;2.40;;;2.20;;
16288;SDS011;26089;43.538;5.250;2022-11-20T06:51:28;3.83;;;2.53;;
16288;SDS011;26089;43.538;5.250;2022-11-20T06:53:55;2.40;;;2.20;;
16288;SDS011;26089;43.538;5.250;2022-11-20T06:56:22;2.77;;;2.57;;
16288;SDS011;26089;43.538;5.250;2022-11-20T06:58:50;2.87;;;2.17;;
16288;SDS011;26089;43.538;5.250;2022-11-20T07:01:17;2.23;;;2.10;;
16288;SDS011;26089;43.538;5.250;2022-11-20T07:03:44;2.70;;;2.40;;
16288;SDS011;26089;43.538;5.250;2022-11-20T07:06:11;2.83;;;1.93;;
16288;SDS011;26089;43.538;5.250;2022-11-20T07:08:38;2.13;;;2.03;;
16288;SDS011;26089;43.538;5.250;2022-11-20T07:11:05;2.17;;;1.97;;
16288;SDS011;26089;43.538;5.250;2022-11-20T07:13:33;3.20;;;2.13;;
16288;SDS011;26089;43.538;5.250;2022-11-20T07:16:01;3.03;;;2.83;;
16288;SDS011;26089;43.538;5.250;2022-11-20T07:18:30;3.87;;;2.30;;
16288;SDS011;26089;43.538;5.250;2022-11-20T07:20:59;3.27;;;2.10;;
16288;SDS011;26089;43.538;5.250;2022-11-20T07:23:27;2.00;;;1.90;;
16288;SDS011;26089;43.538;5.250;2022-11-20T07:25:54;2.10;;;2.00;;
16288;SDS011;26089;43.538;5.250;2022-11-20T07:28:21;2.27;;;2.17;;
16288;SDS011;26089;43.538;5.250;2022-11-20T07:30:51;2.20;;;1.97;;
16288;SDS011;26089;43.538;5.250;2022-11-20T07:33:20;1.80;;;1.70;;
16288;SDS011;26089;43.538;5.250;2022-11-20T07:35:47;3.23;;;2.07;;
16288;SDS011;26089;43.538;5.250;2022-11-20T07:38:14;2.40;;;2.30;;
16288;SDS011;26089;43.538;5.250;2022-11-20T07:40:41;2.00;;;1.80;;
16288;SDS011;26089;43.538;5.250;2022-11-20T07:43:08;2.73;;;2.43;;
16288;SDS011;26089;43.538;5.250;2022-11-20T07:45:35;2.37;;;2.20;;
16288;SDS011;26089;43.538;5.250;2022-11-20T07:48:02;2.20;;;2.00;;
16288;SDS011;26089;43.538;5.250;2022-11-20T07:50:31;3.17;;;2.30;;
16288;SDS011;26089;43.538;5.250;2022-11-20T07:53:01;2.30;;;2.10;;
16288;SDS011;26089;43.538;5.250;2022-11-20T07:55:29;2.30;;;2.20;;
16288;SDS011;26089;43.538;5.250;2022-11-20T07:57:56;2.33;;;2.13;;
16288;SDS011;26089;43.538;5.250;2022-11-20T08:00:23;2.87;;;2.60;;
16288;SDS011;26089;43.538;5.250;2022-11-20T08:02:51;4.30;;;2.03;;
16288;SDS011;26089;43.538;5.250;2022-11-20T08:05:18;2.43;;;2.23;;
16288;SDS011;26089;43.538;5.250;2022-11-20T08:07:46;2.70;;;2.50;;
16288;SDS011;26089;43.538;5.250;2022-11-20T08:10:14;2.30;;;2.10;;
16288;SDS011;26089;43.538;5.250;2022-11-20T08:12:44;2.07;;;1.97;;
16288;SDS011;26089;43.538;5.250;2022-11-20T08:15:30;3.30;;;2.50;;
16288;SDS011;26089;43.538;5.250;2022-11-20T08:18:00;2.50;;;2.40;;
16288;SDS011;26089;43.538;5.250;2022-11-20T08:20:28;2.77;;;2.00;;
16288;SDS011;26089;43.538;5.250;2022-11-20T08:23:00;2.03;;;1.93;;
16288;SDS011;26089;43.538;5.250;2022-11-20T08:25:28;2.20;;;2.10;;
16288;SDS011;26089;43.538;5.250;2022-11-20T08:27:57;2.43;;;2.33;;
16288;SDS011;26089;43.538;5.250;2022-11-20T08:30:24;2.60;;;2.20;;
16288;SDS011;26089;43.538;5.250;2022-11-20T08:32:52;4.17;;;2.50;;
16288;SDS011;26089;43.538;5.250;2022-11-20T08:35:20;5.67;;;2.20;;
16288;SDS011;26089;43.538;5.250;2022-11-20T08:37:47;3.20;;;2.30;;
16288;SDS011;26089;43.538;5.250;2022-11-20T08:40:15;2.37;;;1.93;;
16288;SDS011;26089;43.538;5.250;2022-11-20T08:42:46;2.10;;;2.00;;
16288;SDS011;26089;43.538;5.250;2022-11-20T08:45:13;2.20;;;2.10;;
16288;SDS011;26089;43.538;5.250;2022-11-20T08:47:41;3.27;;;2.17;;
16288;SDS011;26089;43.538;5.250;2022-11-20T08:50:08;3.83;;;2.40;;
16288;SDS011;26089;43.538;5.250;2022-11-20T08:52:35;2.40;;;2.20;;
16288;SDS011;26089;43.538;5.250;2022-11-20T08:55:03;2.23;;;2.03;;
16288;SDS011;26089;43.538;5.250;2022-11-20T08:57:32;2.27;;;2.07;;
16288;SDS011;26089;43.538;5.250;2022-11-20T09:00:00;2.10;;;2.00;;
16288;SDS011;26089;43.538;5.250;2022-11-20T09:02:27;2.10;;;2.00;;
16288;SDS011;26089;43.538;5.250;2022-11-20T09:04:54;3.43;;;2.40;;
16288;SDS011;26089;43.538;5.250;2022-11-20T09:07:21;3.77;;;2.43;;
16288;SDS011;26089;43.538;5.250;2022-11-20T09:09:48;2.40;;;2.10;;
16288;SDS011;26089;43.538;5.250;2022-11-20T09:12:15;2.93;;;2.70;;
16288;SDS011;26089;43.538;5.250;2022-11-20T09:14:44;2.13;;;2.03;;
16288;SDS011;26089;43.538;5.250;2022-11-20T09:17:11;2.30;;;2.10;;
16288;SDS011;26089;43.538;5.250;2022-11-20T09:19:40;3.03;;;2.20;;
16288;SDS011;26089;43.538;5.250;2022-11-20T09:22:07;3.83;;;2.30;;
16288;SDS011;26089;43.538;5.250;2022-11-20T09:24:34;2.20;;;2.10;;
16288;SDS011;26089;43.538;5.250;2022-11-20T09:27:02;1.73;;;1.73;;
16288;SDS011;26089;43.538;5.250;2022-11-20T09:29:30;2.13;;;1.90;;
16288;SDS011;26089;43.538;5.250;2022-11-20T09:31:59;2.00;;;1.80;;
16288;SDS011;26089;43.538;5.250;2022-11-20T09:34:25;2.10;;;2.00;;
16288;SDS011;26089;43.538;5.250;2022-11-20T09:36:52;2.63;;;2.30;;
16288;SDS011;26089;43.538;5.250;2022-11-20T09:39:20;4.53;;;2.10;;
16288;SDS011;26089;43.538;5.250;2022-11-20T09:41:51;3.73;;;2.13;;
16288;SDS011;26089;43.538;5.250;2022-11-20T09:44:33;3.00;;;2.20;;
16288;SDS011;26089;43.538;5.250;2022-11-20T09:47:21;2.83;;;2.63;;
16288;SDS011;26089;43.538;5.250;2022-11-20T09:49:59;2.27;;;1.93;;
16288;SDS011;26089;43.538;5.250;2022-11-20T09:52:41;2.70;;;2.17;;
16288;SDS011;26089;43.538;5.250;2022-11-20T09:55:20;3.73;;;2.20;;
16288;SDS011;26089;43.538;5.250;2022-11-20T09:57:48;3.57;;;2.40;;
16288;SDS011;26089;43.538;5.250;2022-11-20T10:00:18;2.57;;;2.03;;
16288;SDS011;26089;43.538;5.250;2022-11-20T10:02:48;2.33;;;2.13;;
16288;SDS011;26089;43.538;5.250;2022-11-20T10:05:21;2.43;;;2.33;;
16288;SDS011;26089;43.538;5.250;2022-11-20T10:07:52;2.90;;;1.93;;
16288;SDS011;26089;43.538;5.250;2022-11-20T10:10:28;2.20;;;1.50;;
16288;SDS011;26089;43.538;5.250;2022-11-20T10:13:02;1.90;;;1.80;;
16288;SDS011;26089;43.538;5.250;2022-11-20T10:15:42;1.80;;;1.70;;
16288;SDS011;26089;43.538;5.250;2022-11-20T10:18:21;2.70;;;1.70;;
16288;SDS011;26089;43.538;5.250;2022-11-20T10:20:58;2.03;;;1.83;;
16288;SDS011;26089;43.538;5.250;2022-11-20T10:23:47;3.27;;;2.30;;
16288;SDS011;26089;43.538;5.250;2022-11-20T10:26:28;1.60;;;1.30;;
16288;SDS011;26089;43.538;5.250;2022-11-20T10:29:09;1.97;;;1.87;;
16288;SDS011;26089;43.538;5.250;2022-11-20T10:31:39;1.40;;;1.40;;
16288;SDS011;26089;43.538;5.250;2022-11-20T10:34:12;2.00;;;1.90;;
16288;SDS011;26089;43.538;5.250;2022-11-20T10:36:47;1.63;;;1.63;;
16288;SDS011;26089;43.538;5.250;2022-11-20T10:39:22;1.80;;;1.70;;
16288;SDS011;26089;43.538;5.250;2022-11-20T10:41:56;2.10;;;1.90;;
16288;SDS011;26089;43.538;5.250;2022-11-20T10:44:26;3.80;;;1.73;;
16288;SDS011;26089;43.538;5.250;2022-11-20T10:47:12;1.93;;;1.70;;
16288;SDS011;26089;43.538;5.250;2022-11-20T10:49:42;2.43;;;2.20;;
16288;SDS011;26089;43.538;5.250;2022-11-20T10:52:12;3.97;;;1.90;;
16288;SDS011;26089;43.538;5.250;2022-11-20T10:54:48;2.07;;;1.87;;
16288;SDS011;26089;43.538;5.250;2022-11-20T10:57:25;1.90;;;1.50;;
16288;SDS011;26089;43.538;5.250;2022-11-20T11:00:02;1.67;;;1.57;;
16288;SDS011;26089;43.538;5.250;2022-11-20T11:02:32;1.47;;;1.40;;
16288;SDS011;26089;43.538;5.250;2022-11-20T11:05:07;3.07;;;1.67;;
16288;SDS011;26089;43.538;5.250;2022-11-20T11:07:42;1.70;;;1.60;;
16288;SDS011;26089;43.538;5.250;2022-11-20T11:10:14;1.50;;;1.40;;
16288;SDS011;26089;43.538;5.250;2022-11-20T11:12:44;1.93;;;1.80;;
16288;SDS011;26089;43.538;5.250;2022-11-20T11:15:13;2.50;;;1.43;;
16288;SDS011;26089;43.538;5.250;2022-11-20T11:17:51;2.50;;;1.70;;
16288;SDS011;26089;43.538;5.250;2022-11-20T11:20:20;2.73;;;1.40;;
16288;SDS011;26089;43.538;5.250;2022-11-20T11:22:49;2.00;;;1.90;;
16288;SDS011;26089;43.538;5.250;2022-11-20T11:25:22;2.83;;;1.80;;
16288;SDS011;26089;43.538;5.250;2022-11-20T11:27:54;1.57;;;1.50;;
16288;SDS011;26089;43.538;5.250;2022-11-20T11:30:23;2.07;;;1.90;;
16288;SDS011;26089;43.538;5.250;2022-11-20T11:33:01;2.87;;;1.50;;
16288;SDS011;26089;43.538;5.250;2022-11-20T11:35:31;2.10;;;1.57;;
16288;SDS011;26089;43.538;5.250;2022-11-20T11:38:03;7.17;;;1.73;;
16288;SDS011;26089;43.538;5.250;2022-11-20T11:40:32;1.97;;;1.63;;
16288;SDS011;26089;43.538;5.250;2022-11-20T11:43:02;1.70;;;1.60;;
16288;SDS011;26089;43.538;5.250;2022-11-20T11:45:52;2.70;;;1.90;;
16288;SDS011;26089;43.538;5.250;2022-11-20T11:48:19;1.63;;;1.33;;
16288;SDS011;26089;43.538;5.250;2022-11-20T11:50:49;2.23;;;1.40;;
16288;SDS011;26089;43.538;5.250;2022-11-20T11:53:17;3.90;;;1.70;;
16288;SDS011;26089;43.538;5.250;2022-11-20T11:55:47;2.43;;;1.43;;
16288;SDS011;26089;43.538;5.250;2022-11-20T11:58:31;2.00;;;1.40;;
16288;SDS011;26089;43.538;5.250;2022-11-20T12:01:15;2.57;;;1.50;;
16288;SDS011;26089;43.538;5.250;2022-11-20T12:03:52;2.77;;;1.77;;
16288;SDS011;26089;43.538;5.250;2022-11-20T12:06:26;2.40;;;2.20;;
16288;SDS011;26089;43.538;5.250;2022-11-20T12:08:57;2.70;;;1.60;;
16288;SDS011;26089;43.538;5.250;2022-11-20T12:11:29;1.43;;;1.30;;
16288;SDS011;26089;43.538;5.250;2022-11-20T12:14:04;1.60;;;1.50;;
16288;SDS011;26089;43.538;5.250;2022-11-20T12:16:40;3.03;;;1.30;;
16288;SDS011;26089;43.538;5.250;2022-11-20T12:19:08;1.73;;;1.50;;
16288;SDS011;26089;43.538;5.250;2022-11-20T12:21:40;2.17;;;1.40;;
16288;SDS011;26089;43.538;5.250;2022-11-20T12:24:23;1.70;;;1.60;;
16288;SDS011;26089;43.538;5.250;2022-11-20T12:27:14;1.93;;;1.50;;
16288;SDS011;26089;43.538;5.250;2022-11-20T12:30:06;3.57;;;1.70;;
16288;SDS011;26089;43.538;5.250;2022-11-20T12:32:45;1.87;;;1.77;;
16288;SDS011;26089;43.538;5.250;2022-11-20T12:38:32;1.67;;;1.20;;
16288;SDS011;26089;43.538;5.250;2022-11-20T12:41:13;2.20;;;1.40;;
16288;SDS011;26089;43.538;5.250;2022-11-20T12:44:03;1.77;;;1.30;;
16288;SDS011;26089;43.538;5.250;2022-11-20T12:47:07;1.80;;;1.23;;
16288;SDS011;26089;43.538;5.250;2022-11-20T12:49:45;1.50;;;1.40;;
16288;SDS011;26089;43.538;5.250;2022-11-20T12:52:22;1.83;;;1.40;;
16288;SDS011;26089;43.538;5.250;2022-11-20T12:58:10;1.87;;;1.37;;
16288;SDS011;26089;43.538;5.250;2022-11-20T13:00:46;2.63;;;1.53;;
16288;SDS011;26089;43.538;5.250;2022-11-20T13:03:33;4.23;;;1.50;;
16288;SDS011;26089;43.538;5.250;2022-11-20T13:06:13;2.00;;;1.57;;
16288;SDS011;26089;43.538;5.250;2022-11-20T13:08:43;2.03;;;1.60;;
16288;SDS011;26089;43.538;5.250;2022-11-20T13:11:20;2.10;;;1.83;;
16288;SDS011;26089;43.538;5.250;2022-11-20T13:14:03;2.03;;;1.50;;
16288;SDS011;26089;43.538;5.250;2022-11-20T13:16:38;1.40;;;1.30;;
16288;SDS011;26089;43.538;5.250;2022-11-20T13:19:12;2.23;;;1.50;;
16288;SDS011;26089;43.538;5.250;2022-11-20T13:21:42;1.67;;;1.37;;
16288;SDS011;26089;43.538;5.250;2022-11-20T13:24:20;1.23;;;1.13;;
16288;SDS011;26089;43.538;5.250;2022-11-20T13:27:00;1.13;;;1.10;;
16288;SDS011;26089;43.538;5.250;2022-11-20T13:29:29;1.43;;;0.90;;
16288;SDS011;26089;43.538;5.250;2022-11-20T13:32:06;2.20;;;1.10;;
16288;SDS011;26089;43.538;5.250;2022-11-20T13:34:50;1.67;;;1.23;;
16288;SDS011;26089;43.538;5.250;2022-11-20T13:37:24;2.13;;;1.40;;
16288;SDS011;26089;43.538;5.250;2022-11-20T13:40:04;1.30;;;1.20;;
16288;SDS011;26089;43.538;5.250;2022-11-20T13:42:39;1.77;;;1.30;;
16288;SDS011;26089;43.538;5.250;2022-11-20T13:45:11;3.30;;;1.30;;
16288;SDS011;26089;43.538;5.250;2022-11-20T13:47:48;2.20;;;0.93;;
16288;SDS011;26089;43.538;5.250;2022-11-20T13:50:16;3.97;;;1.70;;
16288;SDS011;26089;43.538;5.250;2022-11-20T13:52:46;1.73;;;1.40;;
16288;SDS011;26089;43.538;5.250;2022-11-20T13:55:22;1.17;;;1.17;;
16288;SDS011;26089;43.538;5.250;2022-11-20T13:57:58;1.70;;;1.07;;
16288;SDS011;26089;43.538;5.250;2022-11-20T14:00:43;1.30;;;1.10;;
16288;SDS011;26089;43.538;5.250;2022-11-20T14:03:15;1.40;;;1.30;;
16288;SDS011;26089;43.538;5.250;2022-11-20T14:05:46;1.40;;;1.30;;
16288;SDS011;26089;43.538;5.250;2022-11-20T14:08:21;1.60;;;1.50;;
16288;SDS011;26089;43.538;5.250;2022-11-20T14:11:01;1.40;;;1.20;;
16288;SDS011;26089;43.538;5.250;2022-11-20T14:13:31;1.93;;;1.17;;
16288;SDS011;26089;43.538;5.250;2022-11-20T14:15:58;2.57;;;1.17;;
16288;SDS011;26089;43.538;5.250;2022-11-20T14:18:26;2.33;;;1.50;;
16288;SDS011;26089;43.538;5.250;2022-11-20T14:20:53;2.70;;;1.70;;
16288;SDS011;26089;43.538;5.250;2022-11-20T14:23:23;1.63;;;1.53;;
16288;SDS011;26089;43.538;5.250;2022-11-20T14:25:52;2.43;;;1.50;;
16288;SDS011;26089;43.538;5.250;2022-11-20T14:28:21;2.43;;;1.60;;
16288;SDS011;26089;43.538;5.250;2022-11-20T14:30:54;2.03;;;1.50;;
16288;SDS011;26089;43.538;5.250;2022-11-20T14:33:21;3.33;;;1.93;;
16288;SDS011;26089;43.538;5.250;2022-11-20T14:35:51;2.30;;;1.80;;
16288;SDS011;26089;43.538;5.250;2022-11-20T14:38:20;2.33;;;2.00;;
16288;SDS011;26089;43.538;5.250;2022-11-20T14:40:49;3.70;;;2.07;;
16288;SDS011;26089;43.538;5.250;2022-11-20T14:43:17;3.33;;;1.80;;
16288;SDS011;26089;43.538;5.250;2022-11-20T14:45:48;3.43;;;2.00;;
16288;SDS011;26089;43.538;5.250;2022-11-20T14:48:26;2.90;;;2.20;;
16288;SDS011;26089;43.538;5.250;2022-11-20T14:50:56;2.23;;;2.00;;
16288;SDS011;26089;43.538;5.250;2022-11-20T14:53:24;2.20;;;1.80;;
16288;SDS011;26089;43.538;5.250;2022-11-20T14:55:54;1.90;;;1.50;;
16288;SDS011;26089;43.538;5.250;2022-11-20T14:58:24;1.93;;;1.83;;
16288;SDS011;26089;43.538;5.250;2022-11-20T15:00:53;1.20;;;1.20;;
16288;SDS011;26089;43.538;5.250;2022-11-20T15:03:23;1.53;;;1.43;;
16288;SDS011;26089;43.538;5.250;2022-11-20T15:05:56;1.40;;;1.40;;
16288;SDS011;26089;43.538;5.250;2022-11-20T15:08:23;1.50;;;1.27;;
16288;SDS011;26089;43.538;5.250;2022-11-20T15:10:50;2.10;;;1.60;;
16288;SDS011;26089;43.538;5.250;2022-11-20T15:13:20;1.60;;;1.50;;
16288;SDS011;26089;43.538;5.250;2022-11-20T15:15:52;1.60;;;1.50;;